createdAt,value
2018-06-17T00:01:40.728Z,18.70
2018-06-17T00:04:10.402Z,18.29
2018-06-17T00:06:39.468Z,18.39
2018-06-17T00:09:09.656Z,18.34
2018-06-17T00:11:39.010Z,18.26
2018-06-17T00:14:08.351Z,18.25
2018-06-17T00:16:37.724Z,18.23
2018-06-17T00:19:07.115Z,18.26
2018-06-17T00:21:36.525Z,18.22
2018-06-17T00:24:05.856Z,18.26
2018-06-17T00:26:35.232Z,18.23
2018-06-17T00:29:04.591Z,18.26
2018-06-17T00:31:33.932Z,18.24
2018-06-17T00:34:03.335Z,18.21
2018-06-17T00:36:32.680Z,18.15
2018-06-17T00:39:02.009Z,18.03
2018-06-17T00:41:31.432Z,17.93
2018-06-17T00:44:00.764Z,17.64
2018-06-17T00:46:30.064Z,17.52
2018-06-17T00:48:59.396Z,17.53
2018-06-17T00:51:28.781Z,17.61
2018-06-17T00:53:58.100Z,17.61
2018-06-17T00:56:27.436Z,17.65
2018-06-17T00:58:56.760Z,17.62
2018-06-17T01:01:26.093Z,17.50
2018-06-17T01:03:55.453Z,17.21
2018-06-17T01:06:24.795Z,17.09
2018-06-17T01:08:54.110Z,17.13
2018-06-17T01:11:23.453Z,17.02
2018-06-17T01:13:53.315Z,16.92
2018-06-17T01:16:22.836Z,17.04
2018-06-17T01:18:52.209Z,17.10
2018-06-17T01:21:21.621Z,17.06
2018-06-17T01:23:50.941Z,17.01
2018-06-17T01:26:20.247Z,17.06
2018-06-17T01:28:49.625Z,16.99
2018-06-17T01:31:18.964Z,17.04
2018-06-17T01:33:48.311Z,17.04
2018-06-17T01:36:17.355Z,16.93
2018-06-17T01:38:46.699Z,16.95
2018-06-17T01:41:16.020Z,16.85
2018-06-17T01:43:45.327Z,16.90
2018-06-17T01:46:14.675Z,16.87
2018-06-17T01:48:44.054Z,16.79
2018-06-17T01:51:13.331Z,16.80
2018-06-17T01:53:42.675Z,16.82
2018-06-17T01:56:11.985Z,16.78
2018-06-17T01:58:41.323Z,16.76
2018-06-17T02:01:10.637Z,16.84
2018-06-17T02:03:45.268Z,16.71
2018-06-17T02:06:19.968Z,16.52
2018-06-17T02:08:54.501Z,16.53
2018-06-17T02:11:28.869Z,16.47
2018-06-17T02:14:03.187Z,16.56
2018-06-17T02:16:32.510Z,16.55
2018-06-17T02:19:01.876Z,16.49
2018-06-17T02:21:31.214Z,16.54
2018-06-17T02:24:00.639Z,16.52
2018-06-17T02:26:29.987Z,16.53
2018-06-17T02:28:59.339Z,16.50
2018-06-17T02:31:28.665Z,16.53
2018-06-17T02:33:57.992Z,16.45
2018-06-17T02:36:27.680Z,16.49
2018-06-17T02:38:57.359Z,16.36
2018-06-17T02:41:27.007Z,16.34
2018-06-17T02:43:56.659Z,16.41
2018-06-17T02:46:31.424Z,16.46
2018-06-17T02:49:05.872Z,16.48
2018-06-17T02:51:40.379Z,16.57
2018-06-17T02:54:47.652Z,16.56
2018-06-17T02:57:20.049Z,16.52
2018-06-17T02:59:49.357Z,16.57
2018-06-17T03:02:18.676Z,16.50
2018-06-17T03:04:48.017Z,16.51
2018-06-17T03:07:17.348Z,16.55
2018-06-17T03:09:46.703Z,16.48
2018-06-17T03:12:16.049Z,16.45
2018-06-17T03:14:45.352Z,16.35
2018-06-17T03:17:14.672Z,16.41
2018-06-17T03:19:44.016Z,16.32
2018-06-17T03:22:13.340Z,16.12
2018-06-17T03:24:47.959Z,16.24
2018-06-17T03:28:24.255Z,16.33
2018-06-17T03:30:58.785Z,16.36
2018-06-17T03:33:33.225Z,16.31
2018-06-17T03:36:07.840Z,16.43
2018-06-17T03:38:37.407Z,16.45
2018-06-17T03:41:06.896Z,16.35
2018-06-17T03:43:36.317Z,16.32
2018-06-17T03:46:05.697Z,16.28
2018-06-17T03:48:35.084Z,16.18
2018-06-17T03:51:04.428Z,16.21
2018-06-17T03:53:33.845Z,16.21
2018-06-17T03:56:06.492Z,16.23
2018-06-17T03:58:35.807Z,16.21
2018-06-17T04:01:05.133Z,16.16
2018-06-17T04:03:34.456Z,16.12
2018-06-17T04:06:03.775Z,16.16
2018-06-17T04:08:33.108Z,16.18
2018-06-17T04:11:02.420Z,16.22
2018-06-17T04:13:31.766Z,16.31
2018-06-17T04:16:01.164Z,16.32
2018-06-17T04:18:30.424Z,16.45
2018-06-17T04:20:59.766Z,16.53
2018-06-17T04:23:29.097Z,16.58
2018-06-17T04:25:58.412Z,16.58
2018-06-17T04:28:27.766Z,16.55
2018-06-17T04:30:57.621Z,16.56
2018-06-17T04:33:26.965Z,16.66
2018-06-17T04:45:11.432Z,16.52
2018-06-17T04:47:40.764Z,15.70
2018-06-17T04:50:10.088Z,15.69
2018-06-17T04:52:39.419Z,15.69
2018-06-17T04:55:08.735Z,15.78
2018-06-17T04:57:37.808Z,15.70
2018-06-17T05:00:07.238Z,15.70
2018-06-17T05:02:36.557Z,15.85
2018-06-17T05:05:06.268Z,15.77
2018-06-17T05:07:35.585Z,15.79
2018-06-17T05:10:04.984Z,15.88
2018-06-17T05:12:34.328Z,16.12
2018-06-17T05:15:04.082Z,16.33
2018-06-17T05:17:33.412Z,16.14
2018-06-17T05:20:02.768Z,16.04
2018-06-17T05:22:32.113Z,16.12
2018-06-17T05:25:01.462Z,16.40
2018-06-17T05:27:30.885Z,16.40
2018-06-17T05:30:00.191Z,16.49
2018-06-17T05:32:29.500Z,16.48
2018-06-17T05:34:58.868Z,16.58
2018-06-17T05:37:28.260Z,16.55
2018-06-17T05:39:57.575Z,16.70
2018-06-17T05:42:26.889Z,16.88
2018-06-17T05:44:56.219Z,17.06
2018-06-17T05:47:25.573Z,17.13
2018-06-17T05:49:54.915Z,17.07
2018-06-17T05:52:24.227Z,17.02
2018-06-17T05:54:53.564Z,17.11
2018-06-17T05:57:22.917Z,17.29
2018-06-17T05:59:52.244Z,17.32
2018-06-17T06:02:21.572Z,17.09
2018-06-17T06:04:50.867Z,17.00
2018-06-17T06:07:20.472Z,17.29
2018-06-17T06:09:49.807Z,17.45
2018-06-17T06:12:19.172Z,17.63
2018-06-17T06:14:48.527Z,17.60
2018-06-17T06:17:17.827Z,17.35
2018-06-17T06:19:47.170Z,17.51
2018-06-17T06:22:16.491Z,17.46
2018-06-17T06:24:45.869Z,17.53
2018-06-17T06:27:15.131Z,17.56
2018-06-17T06:29:44.465Z,17.65
2018-06-17T06:32:13.805Z,17.58
2018-06-17T06:34:43.099Z,17.84
2018-06-17T06:37:12.509Z,17.81
2018-06-17T06:39:41.784Z,17.96
2018-06-17T06:42:11.116Z,17.76
2018-06-17T06:44:40.446Z,17.93
2018-06-17T06:47:09.835Z,18.02
2018-06-17T06:49:39.140Z,18.04
2018-06-17T06:52:08.580Z,18.28
2018-06-17T06:54:37.912Z,18.35
2018-06-17T06:57:07.485Z,18.61
2018-06-17T06:59:36.848Z,18.73
2018-06-17T07:02:23.256Z,18.91
2018-06-17T07:05:09.628Z,19.04
2018-06-17T07:07:56.112Z,19.13
2018-06-17T07:10:28.803Z,18.96
2018-06-17T07:12:58.172Z,18.92
2018-06-17T07:15:44.467Z,18.69
2018-06-17T07:18:30.845Z,19.01
2018-06-17T07:21:00.204Z,18.94
2018-06-17T07:23:29.728Z,19.09
2018-06-17T07:26:46.571Z,19.08
2018-06-17T07:29:35.203Z,18.95
2018-06-17T07:32:04.549Z,19.26
2018-06-17T07:34:34.125Z,18.83
2018-06-17T07:37:03.741Z,19.27
2018-06-17T07:40:48.648Z,19.60
2018-06-17T07:43:18.004Z,19.99
2018-06-17T07:45:47.691Z,19.95
2018-06-17T07:49:42.427Z,19.96
2018-06-17T07:52:31.674Z,20.03
2018-06-17T07:55:01.132Z,20.41
2018-06-17T07:57:31.616Z,20.75
2018-06-17T08:00:00.997Z,21.16
2018-06-17T08:02:30.320Z,21.02
2018-06-17T08:04:59.680Z,20.64
2018-06-17T08:07:29.000Z,20.39
2018-06-17T08:09:58.360Z,20.13
2018-06-17T08:12:27.687Z,20.17
2018-06-17T08:14:57.051Z,19.97
2018-06-17T08:17:26.400Z,19.74
2018-06-17T08:19:55.779Z,19.48
2018-06-17T08:22:25.084Z,19.66
2018-06-17T08:24:54.437Z,19.28
2018-06-17T08:27:23.755Z,18.90
2018-06-17T08:29:53.073Z,19.36
2018-06-17T08:32:22.468Z,19.59
2018-06-17T08:34:51.796Z,19.52
2018-06-17T08:37:21.125Z,19.54
2018-06-17T08:39:50.444Z,19.57
2018-06-17T08:42:19.752Z,19.82
2018-06-17T08:44:49.123Z,20.57
2018-06-17T08:47:18.540Z,21.05
2018-06-17T08:49:47.869Z,21.35
2018-06-17T08:52:17.221Z,21.40
2018-06-17T08:54:46.581Z,20.71
2018-06-17T08:57:16.137Z,20.68
2018-06-17T08:59:45.772Z,20.81
2018-06-17T09:02:15.386Z,20.54
2018-06-17T09:04:45.036Z,20.28
2018-06-17T09:07:14.316Z,19.95
2018-06-17T09:09:43.930Z,20.28
2018-06-17T09:12:13.608Z,20.50
2018-06-17T09:14:43.275Z,20.39
2018-06-17T09:17:12.639Z,20.24
2018-06-17T09:19:41.964Z,20.46
2018-06-17T09:22:11.293Z,20.16
2018-06-17T09:24:40.607Z,20.37
2018-06-17T09:27:09.936Z,20.33
2018-06-17T09:29:39.242Z,20.52
2018-06-17T09:32:08.645Z,20.61
2018-06-17T09:34:37.931Z,20.88
2018-06-17T09:37:07.300Z,20.91
2018-06-17T09:39:36.720Z,20.80
2018-06-17T09:42:06.120Z,20.65
2018-06-17T09:44:35.468Z,21.14
2018-06-17T09:47:04.781Z,21.08
2018-06-17T09:49:34.111Z,21.18
2018-06-17T09:52:03.429Z,21.11
2018-06-17T09:54:32.760Z,20.53
2018-06-17T09:57:02.206Z,20.68
2018-06-17T09:59:31.545Z,20.52
2018-06-17T10:02:00.989Z,20.36
2018-06-17T10:04:30.289Z,20.41
2018-06-17T10:06:59.642Z,20.68
2018-06-17T10:09:28.968Z,20.90
2018-06-17T10:11:58.277Z,20.95
2018-06-17T10:14:27.592Z,20.92
2018-06-17T10:16:56.945Z,21.01
2018-06-17T10:19:26.272Z,20.84
2018-06-17T10:21:55.576Z,20.85
2018-06-17T10:24:24.949Z,20.39
2018-06-17T10:26:54.248Z,20.55
2018-06-17T10:29:23.679Z,20.60
2018-06-17T10:31:52.940Z,20.51
2018-06-17T10:34:22.284Z,20.62
2018-06-17T10:36:51.610Z,20.65
2018-06-17T10:39:20.952Z,20.76
2018-06-17T10:41:50.281Z,21.09
2018-06-17T10:44:19.654Z,21.22
2018-06-17T10:46:49.540Z,21.81
2018-06-17T10:49:18.866Z,21.76
2018-06-17T10:55:16.164Z,21.66
2018-06-17T10:57:46.388Z,21.38
2018-06-17T11:00:15.725Z,21.74
2018-06-17T11:02:45.048Z,22.52
2018-06-17T11:05:14.426Z,22.25
2018-06-17T11:07:43.713Z,21.97
2018-06-17T11:10:13.037Z,21.78
2018-06-17T11:12:42.373Z,21.86
2018-06-17T11:15:11.679Z,21.61
2018-06-17T11:17:41.016Z,21.80
2018-06-17T11:20:10.342Z,21.62
2018-06-17T11:22:39.665Z,21.54
2018-06-17T11:25:09.398Z,21.46
2018-06-17T11:27:38.990Z,21.11
2018-06-17T11:30:08.640Z,20.82
2018-06-17T11:32:38.257Z,20.85
2018-06-17T11:35:07.607Z,20.82
2018-06-17T11:37:36.940Z,20.85
2018-06-17T11:40:06.259Z,20.96
2018-06-17T11:42:35.628Z,21.11
2018-06-17T11:45:05.002Z,21.06
2018-06-17T11:47:34.369Z,21.61
2018-06-17T11:50:03.740Z,22.03
2018-06-17T11:52:33.073Z,22.46
2018-06-17T11:55:02.423Z,22.67
2018-06-17T11:57:32.101Z,22.72
2018-06-17T12:00:01.786Z,23.12
2018-06-17T12:02:31.364Z,23.31
2018-06-17T12:05:00.903Z,23.13
2018-06-17T12:07:30.296Z,22.72
2018-06-17T12:09:59.620Z,22.85
2018-06-17T12:12:29.005Z,23.59
2018-06-17T12:14:58.354Z,24.06
2018-06-17T12:17:27.712Z,23.99
2018-06-17T12:19:57.072Z,23.99
2018-06-17T12:22:26.400Z,23.61
2018-06-17T12:24:55.759Z,23.73
2018-06-17T12:27:25.216Z,23.73
2018-06-17T12:29:54.655Z,23.67
2018-06-17T12:32:24.394Z,23.54
2018-06-17T12:34:53.749Z,23.73
2018-06-17T12:37:23.280Z,23.94
2018-06-17T12:39:52.391Z,24.45
2018-06-17T12:42:21.724Z,23.67
2018-06-17T12:44:51.049Z,23.38
2018-06-17T12:47:20.359Z,23.49
2018-06-17T12:49:49.708Z,22.98
2018-06-17T12:52:19.036Z,22.90
2018-06-17T12:54:48.407Z,22.26
2018-06-17T12:57:17.737Z,22.57
2018-06-17T12:59:47.064Z,22.64
2018-06-17T13:02:16.388Z,22.37
2018-06-17T13:04:45.824Z,22.15
2018-06-17T13:07:15.255Z,22.31
2018-06-17T13:09:44.601Z,22.29
2018-06-17T13:12:13.965Z,22.16
2018-06-17T13:14:43.409Z,22.57
2018-06-17T13:17:12.765Z,22.57
2018-06-17T13:19:42.148Z,22.59
2018-06-17T13:22:11.477Z,23.12
2018-06-17T13:24:40.856Z,23.65
2018-06-17T13:27:10.178Z,23.82
2018-06-17T13:29:39.543Z,23.78
2018-06-17T13:32:08.880Z,23.40
2018-06-17T13:34:38.229Z,23.33
2018-06-17T13:37:07.603Z,23.05
2018-06-17T13:39:36.973Z,22.76
2018-06-17T13:42:06.689Z,22.88
2018-06-17T13:44:36.039Z,22.84
2018-06-17T13:47:05.619Z,23.06
2018-06-17T13:49:34.987Z,22.73
2018-06-17T13:52:04.371Z,22.33
2018-06-17T13:54:33.710Z,22.27
2018-06-17T13:57:03.075Z,22.32
2018-06-17T13:59:32.449Z,22.49
2018-06-17T14:02:01.839Z,22.52
2018-06-17T14:04:31.198Z,22.54
2018-06-17T14:07:00.570Z,22.52
2018-06-17T14:09:29.927Z,22.52
2018-06-17T14:12:01.302Z,22.65
2018-06-17T14:14:30.698Z,22.34
2018-06-17T14:17:00.252Z,22.07
2018-06-17T14:19:29.597Z,22.33
2018-06-17T14:21:59.251Z,22.65
2018-06-17T14:24:28.597Z,22.81
2018-06-17T14:26:57.945Z,22.93
2018-06-17T14:29:27.285Z,22.80
2018-06-17T14:31:56.751Z,23.14
2018-06-17T14:34:26.462Z,23.45
2018-06-17T14:36:56.050Z,23.66
2018-06-17T14:39:25.704Z,23.34
2018-06-17T14:42:00.622Z,23.92
2018-06-17T14:44:35.335Z,23.77
2018-06-17T14:47:10.290Z,23.30
2018-06-17T14:49:44.873Z,22.98
2018-06-17T14:52:19.369Z,23.00
2018-06-17T14:54:48.684Z,22.80
2018-06-17T14:57:18.011Z,23.20
2018-06-17T14:59:47.374Z,22.99
2018-06-17T15:02:16.752Z,23.12
2018-06-17T15:04:46.087Z,22.96
2018-06-17T15:07:15.413Z,22.50
2018-06-17T15:09:44.769Z,22.70
2018-06-17T15:12:14.052Z,22.77
2018-06-17T15:14:43.415Z,22.65
2018-06-17T15:17:12.715Z,22.87
2018-06-17T15:19:42.056Z,23.08
2018-06-17T15:22:11.406Z,22.87
2018-06-17T15:24:40.705Z,23.11
2018-06-17T15:27:10.041Z,22.90
2018-06-17T15:29:39.365Z,22.92
2018-06-17T15:32:13.907Z,22.67
2018-06-17T15:34:48.318Z,22.53
2018-06-17T15:37:26.234Z,22.25
2018-06-17T15:39:58.925Z,22.35
2018-06-17T15:42:28.757Z,22.21
2018-06-17T15:44:58.073Z,22.16
2018-06-17T15:55:17.394Z,22.72
2018-06-17T15:57:46.700Z,22.67
2018-06-17T16:00:16.060Z,22.53
2018-06-17T16:02:45.389Z,22.14
2018-06-17T16:05:14.744Z,22.43
2018-06-17T16:07:44.305Z,22.40
2018-06-17T16:10:13.731Z,22.46
2018-06-17T16:13:50.146Z,22.29
2018-06-17T16:16:24.681Z,22.30
2018-06-17T16:18:59.338Z,21.84
2018-06-17T16:21:28.647Z,21.90
2018-06-17T16:23:58.000Z,22.19
2018-06-17T16:26:27.351Z,22.07
2018-06-17T16:28:56.672Z,21.99
2018-06-17T16:31:26.025Z,21.65
2018-06-17T16:33:55.363Z,21.53
2018-06-17T16:36:24.700Z,21.79
2018-06-17T16:38:54.120Z,21.65
2018-06-17T16:41:23.448Z,21.66
2018-06-17T16:43:53.043Z,21.47
2018-06-17T16:46:22.337Z,21.70
2018-06-17T16:48:51.645Z,21.67
2018-06-17T16:51:26.110Z,21.23
2018-06-17T16:54:00.727Z,21.15
2018-06-17T16:56:35.300Z,21.19
2018-06-17T16:59:09.876Z,21.23
2018-06-17T17:01:39.232Z,21.25
2018-06-17T17:04:08.581Z,21.01
2018-06-17T17:06:37.900Z,20.93
2018-06-17T17:09:10.268Z,20.70
2018-06-17T17:11:40.440Z,20.66
2018-06-17T17:14:10.891Z,20.84
2018-06-17T17:16:40.606Z,21.10
2018-06-17T17:19:09.944Z,20.74
2018-06-17T17:21:39.264Z,20.93
2018-06-17T17:24:08.616Z,21.06
2018-06-17T17:26:37.956Z,21.33
2018-06-17T17:29:07.302Z,21.32
2018-06-17T17:31:41.837Z,21.09
2018-06-17T17:34:20.036Z,20.96
2018-06-17T17:36:54.569Z,21.37
2018-06-17T17:39:29.111Z,21.49
2018-06-17T17:41:58.521Z,21.21
2018-06-17T17:44:27.923Z,21.41
2018-06-17T17:47:02.464Z,21.42
2018-06-17T17:49:32.020Z,21.56
2018-06-17T17:52:01.366Z,21.26
2018-06-17T17:54:30.496Z,20.96
2018-06-17T17:57:00.574Z,20.55
2018-06-17T17:59:30.724Z,20.63
2018-06-17T18:02:00.161Z,20.67
2018-06-17T18:04:29.745Z,20.50
2018-06-17T18:06:59.581Z,20.56
2018-06-17T18:09:29.274Z,20.49
2018-06-17T18:11:59.896Z,20.58
2018-06-17T18:14:30.816Z,20.15
2018-06-17T18:17:00.928Z,20.40
2018-06-17T18:19:30.914Z,20.24
2018-06-17T18:22:00.733Z,19.93
2018-06-17T18:24:31.236Z,19.77
2018-06-17T18:27:06.975Z,19.77
2018-06-17T18:29:43.387Z,19.35
2018-06-17T18:32:20.118Z,19.24
2018-06-17T18:34:56.663Z,19.31
2018-06-17T18:37:28.565Z,19.13
2018-06-17T18:40:00.220Z,18.85
2018-06-17T18:42:32.309Z,18.96
2018-06-17T18:45:04.347Z,18.98
2018-06-17T18:47:36.429Z,18.94
2018-06-17T18:50:08.833Z,18.94
2018-06-17T18:52:41.686Z,19.18
2018-06-17T18:55:14.502Z,19.34
2018-06-17T18:57:47.324Z,19.34
2018-06-17T19:00:19.383Z,19.42
2018-06-17T19:02:51.594Z,19.35
2018-06-17T19:05:25.209Z,19.12
2018-06-17T19:07:57.423Z,19.17
2018-06-17T19:10:34.176Z,19.13
2018-06-17T19:13:10.991Z,19.37
2018-06-17T19:15:47.719Z,19.26
2018-06-17T19:18:19.969Z,18.59
2018-06-17T19:20:52.103Z,18.33
2018-06-17T19:23:24.350Z,17.98
2018-06-17T19:25:56.229Z,17.89
2018-06-17T19:28:28.515Z,17.88
2018-06-17T19:31:00.685Z,17.92
2018-06-17T19:33:32.932Z,17.52
2018-06-17T19:36:05.079Z,17.75
2018-06-17T19:38:37.353Z,17.65
2018-06-17T19:41:09.924Z,17.63
2018-06-17T19:43:42.508Z,17.67
2018-06-17T19:46:14.695Z,17.50
2018-06-17T19:48:46.918Z,17.48
2018-06-17T19:51:23.471Z,17.50
2018-06-17T19:54:00.713Z,17.52
2018-06-17T19:56:37.574Z,17.38
2018-06-17T19:59:14.349Z,17.52
2018-06-17T20:01:47.009Z,17.48
2018-06-17T20:04:19.159Z,17.37
2018-06-17T20:06:51.531Z,17.28
2018-06-17T20:09:23.656Z,17.22
2018-06-17T20:11:55.955Z,17.34
2018-06-17T20:14:28.083Z,17.41
2018-06-17T20:17:00.240Z,17.43
2018-06-17T20:19:32.901Z,17.47
2018-06-17T20:22:05.048Z,17.53
2018-06-17T20:24:37.003Z,17.56
2018-06-17T20:27:08.951Z,17.24
2018-06-17T20:29:41.042Z,16.97
2018-06-17T20:32:17.769Z,16.89
2018-06-17T20:34:53.509Z,16.56
2018-06-17T20:37:30.272Z,16.34
2018-06-17T20:40:06.652Z,16.38
2018-06-17T20:42:43.015Z,16.51
2018-06-17T20:45:15.076Z,16.40
2018-06-17T20:47:45.597Z,16.48
2018-06-17T20:50:15.409Z,16.54
2018-06-17T20:52:44.821Z,16.62
2018-06-17T20:55:14.241Z,16.55
2018-06-17T20:57:43.693Z,16.55
2018-06-17T21:00:13.068Z,16.29
2018-06-17T21:02:42.532Z,16.23
2018-06-17T21:05:12.025Z,16.23
2018-06-17T21:07:41.145Z,16.23
2018-06-17T21:10:10.536Z,16.27
2018-06-17T21:12:39.857Z,16.18
2018-06-17T21:15:14.308Z,16.36
2018-06-17T21:17:43.684Z,16.35
2018-06-17T21:20:18.268Z,16.33
2018-06-17T21:22:52.776Z,16.36
2018-06-17T21:25:27.401Z,16.21
2018-06-17T21:27:58.176Z,16.06
2018-06-17T21:30:27.529Z,16.02
2018-06-17T21:32:56.849Z,15.98
2018-06-17T21:35:27.114Z,15.79
2018-06-17T21:37:56.423Z,15.85
2018-06-17T21:40:25.762Z,15.90
2018-06-17T21:42:55.140Z,15.93
2018-06-17T21:45:24.448Z,15.98
2018-06-17T21:47:53.788Z,15.91
2018-06-17T21:50:23.123Z,15.91
2018-06-17T21:52:52.510Z,15.89
2018-06-17T21:55:21.877Z,15.95
2018-06-17T21:57:51.205Z,15.90
2018-06-17T22:00:20.535Z,15.93
2018-06-17T22:02:49.852Z,15.96
2018-06-17T22:05:19.151Z,16.04
2018-06-17T22:07:53.662Z,16.03
2018-06-17T22:10:28.200Z,15.84
2018-06-17T22:12:59.402Z,15.77
2018-06-17T22:15:34.064Z,15.97
2018-06-17T22:18:03.844Z,16.05
2018-06-17T22:20:33.179Z,16.11
2018-06-17T22:23:02.524Z,16.16
2018-06-17T22:25:31.847Z,16.13
2018-06-17T22:28:01.199Z,16.17
2018-06-17T22:30:30.590Z,16.19
2018-06-17T22:32:59.927Z,16.04
2018-06-17T22:35:29.236Z,16.00
2018-06-17T22:37:58.546Z,15.92
2018-06-17T22:40:27.896Z,15.75
2018-06-17T22:42:57.212Z,15.71
2018-06-17T22:45:26.756Z,15.70
2018-06-17T22:47:58.408Z,15.57
2018-06-17T22:50:28.093Z,15.65
2018-06-17T22:53:08.488Z,15.50
2018-06-17T22:55:37.843Z,15.57
2018-06-17T22:58:12.258Z,15.53
2018-06-17T23:00:46.659Z,15.39
2018-06-17T23:03:21.087Z,15.40
2018-06-17T23:05:55.641Z,15.40
2018-06-17T23:08:30.181Z,15.41
2018-06-17T23:10:59.447Z,15.29
2018-06-17T23:13:28.769Z,15.34
2018-06-17T23:15:58.100Z,15.39
2018-06-17T23:18:27.433Z,15.26
2018-06-17T23:20:56.744Z,15.33
2018-06-17T23:23:26.143Z,15.21
2018-06-17T23:25:55.452Z,15.24
2018-06-17T23:28:24.838Z,15.10
2018-06-17T23:30:54.176Z,15.08
2018-06-17T23:33:23.509Z,15.29
2018-06-17T23:35:52.865Z,15.35
2018-06-17T23:38:22.187Z,15.49
2018-06-17T23:40:51.529Z,15.33
2018-06-17T23:43:20.895Z,15.42
2018-06-17T23:45:55.492Z,15.33
2018-06-17T23:48:30.155Z,15.39
2018-06-17T23:51:04.889Z,15.45
2018-06-17T23:53:39.564Z,15.42
2018-06-17T23:56:10.060Z,15.33
2018-06-17T23:58:40.056Z,15.37
